Time;durP1;ratioP1;P1;durP2;ratioP2;P2;SDS_P1;SDS_P2;PMS_P1;PMS_P2;Temp;Humidity;BMP_temperature;BMP_pressure;BME280_temperature;BME280_humidity;BME280_pressure;Samples;Min_cycle;Max_cycle;Signal;HPM_P1;HPM_P2
2023/03/27 00:01:28;;;;;;;0.30;0.30;;;;;;;8.59;77.32;97739.56;5093965;28;42405;-82
2023/03/27 00:03:56;;;;;;;0.30;0.30;;;;;;;8.50;77.35;97723.56;5093895;28;40369;-82
2023/03/27 00:06:26;;;;;;;0.20;0.20;;;;;;;8.58;77.20;97751.06;5077353;28;40755;-83
2023/03/27 00:08:55;;;;;;;0.20;0.20;;;;;;;8.51;77.61;97746.34;5077169;28;42008;-81
2023/03/27 00:11:24;;;;;;;0.20;0.20;;;;;;;8.42;77.02;97754.91;5077108;28;42349;-82
2023/03/27 00:13:53;;;;;;;0.40;0.30;;;;;;;8.32;77.32;97735.41;5077147;28;39107;-82
2023/03/27 00:16:22;;;;;;;0.30;0.30;;;;;;;8.37;77.57;97743.84;5093814;28;41956;-82
2023/03/27 00:18:50;;;;;;;0.20;0.20;;;;;;;8.41;77.98;97763.75;5076986;28;42880;-83
2023/03/27 00:21:18;;;;;;;0.30;0.30;;;;;;;8.30;78.19;97744.25;5076487;28;41100;-83
2023/03/27 00:23:46;;;;;;;0.40;0.40;;;;;;;8.42;78.55;97762.81;5093852;28;40014;-82
2023/03/27 00:26:15;;;;;;;0.60;0.50;;;;;;;8.34;77.90;97781.84;5076798;28;40704;-82
2023/03/27 00:28:43;;;;;;;0.50;0.43;;;;;;;8.18;77.74;97771.47;5076757;28;42353;-84
2023/03/27 00:31:14;;;;;;;0.50;0.50;;;;;;;8.28;77.41;97795.44;5076539;28;41063;-82
2023/03/27 00:33:42;;;;;;;0.83;0.50;;;;;;;8.20;77.77;97803.88;5093532;28;40675;-81
2023/03/27 00:36:11;;;;;;;0.60;0.60;;;;;;;8.17;77.42;97817.25;5076355;28;40805;-82
2023/03/27 00:38:39;;;;;;;0.50;0.50;;;;;;;8.00;76.95;97800.94;5076563;28;41896;-81
2023/03/27 00:41:08;;;;;;;1.70;0.60;;;;;;;7.90;75.85;97813.91;5076451;28;42182;-84
2023/03/27 00:43:42;;;;;;;0.87;0.50;;;;;;;7.76;75.46;97821.91;5093675;28;40054;-83
2023/03/27 00:46:30;;;;;;;0.70;0.70;;;;;;;7.82;75.18;97848.66;5076583;28;40768;-83
2023/03/27 00:49:01;;;;;;;1.70;0.70;;;;;;;7.72;74.79;97857.31;5076517;28;41781;-81
2023/03/27 00:51:31;;;;;;;0.80;0.73;;;;;;;7.61;74.98;97828.19;5091747;28;42307;-80
2023/03/27 00:54:00;;;;;;;3.03;0.70;;;;;;;7.67;75.13;97848.84;5076314;28;40207;-81
2023/03/27 00:56:29;;;;;;;1.23;0.60;;;;;;;7.62;74.92;97856.22;5092934;28;40477;-82
2023/03/27 00:59:03;;;;;;;1.03;0.57;;;;;;;7.67;75.28;97865.50;5076394;28;41858;-82
2023/03/27 01:01:32;;;;;;;1.33;0.63;;;;;;;7.62;75.26;97869.41;5076284;28;42141;-83
2023/03/27 01:04:01;;;;;;;0.73;0.70;;;;;;;7.57;75.02;97860.00;5076202;28;38994;-82
2023/03/27 01:06:30;;;;;;;1.73;0.80;;;;;;;7.53;75.51;97874.34;5093025;28;42400;-81
2023/03/27 01:08:59;;;;;;;2.07;1.30;;;;;;;7.47;76.10;97881.78;5093109;28;42720;-82
2023/03/27 01:11:39;;;;;;;1.87;1.00;;;;;;;7.43;76.23;97878.50;5075914;28;41351;-80
2023/03/27 01:14:24;;;;;;;1.90;1.00;;;;;;;7.42;76.72;97894.41;5076615;28;39294;-81
2023/03/27 01:17:08;;;;;;;3.07;1.30;;;;;;;7.32;77.09;97890.69;5079554;28;40517;-81
2023/03/27 01:20:33;;;;;;;4.13;1.07;;;;;;;7.23;77.63;97897.41;5084968;28;42943;-81
2023/03/27 01:23:42;;;;;;;2.73;1.00;;;;;;;7.13;78.23;97906.84;5075798;28;41332;-81
2023/03/27 01:26:56;;;;;;;1.27;1.17;;;;;;;6.94;79.36;97901.03;5075830;28;41312;-82
2023/03/27 01:30:03;;;;;;;1.93;1.20;;;;;;;7.00;79.47;97921.72;5076151;28;41648;-81
2023/03/27 01:33:26;;;;;;;3.03;1.30;;;;;;;6.90;79.87;97917.97;4998113;28;41577;-81
2023/03/27 01:36:20;;;;;;;2.03;1.07;;;;;;;6.82;80.15;97921.91;5092809;28;42146;-80
2023/03/27 01:39:31;;;;;;;4.47;1.47;;;;;;;6.77;80.72;97931.91;5092875;28;39972;-84
2023/03/27 01:42:09;;;;;;;2.63;1.77;;;;;;;6.70;80.93;97930.56;5075237;28;41845;-82
2023/03/27 01:44:46;;;;;;;5.77;1.40;;;;;;;6.49;80.46;97921.38;5075497;28;41827;-81
2023/03/27 01:47:26;;;;;;;2.83;1.30;;;;;;;6.51;80.75;97944.94;5075448;28;42049;-81
2023/03/27 01:50:01;;;;;;;4.03;1.47;;;;;;;6.39;80.78;97938.66;5075936;28;39229;-82
2023/03/27 01:52:33;;;;;;;4.50;1.70;;;;;;;6.42;80.48;97959.50;5091951;28;41869;-81
2023/03/27 01:55:09;;;;;;;2.60;1.30;;;;;;;6.34;81.07;97954.69;5108135;28;43656;-80
2023/03/27 01:57:47;;;;;;;3.67;1.50;;;;;;;6.40;80.94;97966.63;5091387;28;41538;-82
2023/03/27 02:00:21;;;;;;;5.40;1.57;;;;;;;6.19;81.30;97941.59;5075758;28;38900;-81
2023/03/27 02:02:55;;;;;;;3.60;1.67;;;;;;;6.32;81.77;97963.59;5092251;28;41045;-84
2023/03/27 02:05:28;;;;;;;3.97;2.00;;;;;;;6.40;81.96;97975.38;5075645;28;42961;-82
2023/03/27 02:08:04;;;;;;;1.63;1.20;;;;;;;6.37;81.46;97970.28;5075722;28;41529;-81
2023/03/27 02:10:42;;;;;;;1.80;1.20;;;;;;;6.48;81.37;97994.16;5076122;28;38704;-82
2023/03/27 02:13:20;;;;;;;2.20;1.60;;;;;;;6.47;81.82;97991.63;5075522;28;40925;-81
2023/03/27 02:15:50;;;;;;;4.00;1.73;;;;;;;6.35;81.68;97976.56;5075804;28;41628;-81
2023/03/27 02:18:24;;;;;;;3.07;1.80;;;;;;;6.48;81.65;97995.94;5074757;28;41301;-81
2023/03/27 02:20:53;;;;;;;7.57;2.37;;;;;;;6.38;81.13;97997.44;5074939;28;40935;-82
2023/03/27 02:23:21;;;;;;;5.17;2.30;;;;;;;6.07;80.88;97957.16;5074540;28;41314;-82
2023/03/27 02:25:53;;;;;;;4.67;2.20;;;;;;;6.36;80.85;98021.19;5074542;28;41497;-81
2023/03/27 02:28:52;;;;;;;7.23;2.70;;;;;;;6.36;80.41;98033.47;5074611;28;41216;-81
2023/03/27 02:31:38;;;;;;;7.87;2.80;;;;;;;6.37;80.22;98037.81;5074629;28;39011;-82
2023/03/27 02:34:40;;;;;;;6.50;2.50;;;;;;;6.24;80.42;98031.56;5088227;28;41839;-82
2023/03/27 02:37:21;;;;;;;11.10;3.83;;;;;;;6.22;80.11;98044.78;5052784;28;41666;-82
2023/03/27 02:40:29;;;;;;;10.60;3.20;;;;;;;6.31;80.50;98069.69;5091847;28;41318;-83
2023/03/27 02:43:21;;;;;;;10.63;2.97;;;;;;;6.22;80.33;98070.25;5074664;28;38573;-82
2023/03/27 02:45:54;;;;;;;5.63;2.07;;;;;;;6.18;80.25;98068.75;5074745;28;40867;-81
2023/03/27 02:48:30;;;;;;;7.07;2.40;;;;;;;6.09;79.80;98064.84;5091835;28;41980;-82
2023/03/27 02:51:02;;;;;;;5.93;2.73;;;;;;;6.21;80.19;98094.84;5088820;28;43206;-80
2023/03/27 02:53:35;;;;;;;9.40;2.73;;;;;;;5.77;79.72;98048.25;5074959;28;39097;-81
2023/03/27 02:56:06;;;;;;;7.87;2.70;;;;;;;5.99;79.76;98096.06;5088659;28;41825;-82
2023/03/27 02:58:43;;;;;;;9.17;2.57;;;;;;;6.01;79.88;98119.63;5075102;28;41876;-82
2023/03/27 03:01:30;;;;;;;6.20;2.33;;;;;;;5.99;79.99;98124.13;5089308;28;42534;-82
2023/03/27 03:04:15;;;;;;;6.00;2.00;;;;;;;5.81;80.63;98115.44;5088278;28;39707;-82
2023/03/27 03:07:05;;;;;;;5.37;2.10;;;;;;;5.72;80.29;98114.16;5093400;28;41583;-82
2023/03/27 03:09:36;;;;;;;8.90;2.10;;;;;;;5.76;80.94;98141.13;5092119;28;42875;-82
2023/03/27 03:12:04;;;;;;;6.40;2.90;;;;;;;5.72;80.67;98155.34;5077762;28;42414;-81
2023/03/27 03:14:43;;;;;;;6.80;2.50;;;;;;;5.61;80.43;98136.69;5078816;28;40293;-81
2023/03/27 03:17:11;;;;;;;9.03;2.20;;;;;;;5.61;80.76;98152.44;5077890;28;40845;-83
2023/03/27 03:19:39;;;;;;;6.43;2.23;;;;;;;5.69;81.09;98166.84;5077470;28;42649;-83
2023/03/27 03:22:08;;;;;;;6.67;2.37;;;;;;;5.68;80.97;98180.09;5077579;28;41203;-81
2023/03/27 03:24:40;;;;;;;8.53;2.53;;;;;;;5.62;81.21;98193.53;5077977;28;40103;-82
2023/03/27 03:27:10;;;;;;;7.47;2.77;;;;;;;5.60;80.93;98192.78;5077552;28;40788;-82
2023/03/27 03:29:47;;;;;;;15.90;2.77;;;;;;;5.28;80.92;98139.34;5078474;28;42795;-81
2023/03/27 03:32:29;;;;;;;6.53;2.50;;;;;;;5.58;80.54;98203.34;5077487;28;42086;-83
2023/03/27 03:34:57;;;;;;;7.27;2.47;;;;;;;5.53;80.35;98220.31;5077604;28;39029;-81
2023/03/27 03:37:27;;;;;;;12.67;3.00;;;;;;;5.39;79.75;98208.72;5077507;28;41539;-82
2023/03/27 03:39:57;;;;;;;7.83;2.27;;;;;;;5.37;79.46;98222.88;5077673;28;41611;-81
2023/03/27 03:42:25;;;;;;;7.27;2.27;;;;;;;5.23;79.67;98220.94;5077466;28;41501;-82
2023/03/27 03:44:55;;;;;;;5.67;2.43;;;;;;;5.31;79.55;98242.41;5077447;28;39224;-80
2023/03/27 03:47:24;;;;;;;10.10;2.77;;;;;;;5.32;79.40;98249.34;5077458;28;41960;-81
2023/03/27 03:49:52;;;;;;;10.93;3.50;;;;;;;5.25;79.13;98249.75;5094416;28;42910;-83
2023/03/27 03:52:20;;;;;;;7.13;2.30;;;;;;;5.29;78.93;98260.03;5077342;28;41464;-82
2023/03/27 03:54:47;;;;;;;8.27;2.33;;;;;;;5.15;78.86;98252.00;5077501;28;40418;-82
2023/03/27 03:57:15;;;;;;;10.00;2.50;;;;;;;5.20;78.57;98283.25;5094080;28;41826;-82
2023/03/27 03:59:50;;;;;;;7.07;3.03;;;;;;;5.11;78.13;98283.69;5077628;28;42947;-83
2023/03/27 04:02:35;;;;;;;8.00;2.57;;;;;;;5.10;78.17;98293.34;5091626;28;41523;-82
2023/03/27 04:05:10;;;;;;;8.97;2.57;;;;;;;5.01;77.89;98299.06;5077693;28;41185;-81
2023/03/27 04:07:41;;;;;;;6.43;2.40;;;;;;;4.93;78.00;98307.31;5078489;28;41712;-81
2023/03/27 04:10:21;;;;;;;8.47;3.13;;;;;;;4.90;77.27;98322.34;5113230;28;44317;-79
2023/03/27 04:12:51;;;;;;;7.30;2.53;;;;;;;4.87;77.29;98338.22;5105205;28;42301;-83
2023/03/27 04:15:30;;;;;;;4.20;2.00;;;;;;;4.80;76.80;98328.97;5093446;28;40341;-84
2023/03/27 04:18:19;;;;;;;7.63;2.33;;;;;;;4.86;76.31;98349.63;5093765;28;40495;-81
2023/03/27 04:20:48;;;;;;;8.20;2.70;;;;;;;4.69;76.32;98345.22;5077055;28;41863;-81
2023/03/27 04:23:17;;;;;;;5.83;2.37;;;;;;;4.61;76.60;98350.78;5077944;28;42363;-81
2023/03/27 04:25:46;;;;;;;7.40;2.60;;;;;;;4.56;76.53;98359.81;5094542;28;40320;-81
2023/03/27 04:28:20;;;;;;;4.03;2.10;;;;;;;4.44;76.77;98366.47;5077724;28;41461;-81
2023/03/27 04:30:54;;;;;;;7.03;2.10;;;;;;;4.42;76.84;98386.66;5077444;28;44517;-82
2023/03/27 04:33:45;;;;;;;5.63;2.20;;;;;;;4.29;77.14;98380.25;5094167;28;41192;-81
2023/03/27 04:36:31;;;;;;;8.50;2.93;;;;;;;4.33;77.39;98395.75;5077797;28;39551;-82
2023/03/27 04:39:09;;;;;;;5.40;2.37;;;;;;;4.25;77.50;98391.78;5090439;28;42648;-83
2023/03/27 04:41:37;;;;;;;6.20;2.63;;;;;;;4.20;77.26;98401.66;5076848;28;42125;-81
2023/03/27 04:44:05;;;;;;;10.03;2.90;;;;;;;4.16;77.42;98403.53;5076549;28;41084;-83
2023/03/27 04:46:33;;;;;;;7.20;3.50;;;;;;;4.18;77.25;98422.69;5076679;28;38548;-80
2023/03/27 04:49:10;;;;;;;8.73;2.90;;;;;;;4.08;77.46;98423.16;5091825;28;42581;-81
2023/03/27 04:52:00;;;;;;;7.20;2.47;;;;;;;3.96;76.93;98422.72;5091042;28;42501;-80
2023/03/27 04:54:30;;;;;;;4.43;1.90;;;;;;;4.05;77.31;98442.47;5076251;28;41255;-81
2023/03/27 04:57:00;;;;;;;6.10;2.20;;;;;;;3.94;77.56;98444.69;5059867;28;40732;-80
2023/03/27 04:59:30;;;;;;;10.43;2.67;;;;;;;4.05;77.11;98459.97;5076325;28;41826;-81
2023/03/27 05:02:18;;;;;;;5.93;2.57;;;;;;;4.01;76.87;98469.69;5094451;28;43557;-81
2023/03/27 05:04:57;;;;;;;5.33;2.23;;;;;;;4.01;76.79;98481.94;5077955;28;40896;-81
2023/03/27 05:07:31;;;;;;;5.90;2.17;;;;;;;3.96;76.78;98488.22;5081072;28;38505;-80
2023/03/27 05:10:00;;;;;;;6.67;2.23;;;;;;;3.92;77.11;98488.44;5080553;28;41289;-82
2023/03/27 05:12:29;;;;;;;4.57;2.20;;;;;;;3.96;77.17;98497.84;5080059;28;41646;-83
2023/03/27 05:15:04;;;;;;;9.80;2.57;;;;;;;3.84;76.71;98480.88;5095954;28;43104;-82
2023/03/27 05:17:40;;;;;;;7.03;2.87;;;;;;;3.93;76.85;98496.22;5077460;28;40078;-82
2023/03/27 05:20:15;;;;;;;7.10;2.53;;;;;;;3.98;77.06;98515.22;5075153;28;41935;-79
2023/03/27 05:22:44;;;;;;;8.47;2.47;;;;;;;3.94;76.91;98508.41;5089718;28;43900;-81
2023/03/27 05:25:39;;;;;;;5.23;2.37;;;;;;;4.07;76.37;98534.09;5090052;28;42198;-81
2023/03/27 05:28:11;;;;;;;6.27;2.03;;;;;;;4.05;76.00;98547.28;5089324;28;40184;-80
2023/03/27 05:30:41;;;;;;;8.47;2.13;;;;;;;4.12;75.78;98558.34;5075840;28;40776;-83
2023/03/27 05:33:27;;;;;;;10.63;2.37;;;;;;;4.14;75.90;98556.50;5075819;28;42848;-81
2023/03/27 05:35:58;;;;;;;7.00;2.13;;;;;;;4.29;75.35;98577.69;5092676;28;42267;-82
2023/03/27 05:38:26;;;;;;;4.37;2.10;;;;;;;4.36;74.99;98588.75;5075391;28;39155;-81
2023/03/27 05:41:15;;;;;;;5.70;2.13;;;;;;;4.37;74.41;98582.59;5091897;28;40986;-81
2023/03/27 05:43:46;;;;;;;8.50;2.63;;;;;;;4.41;74.02;98578.09;5090274;28;43462;-80
2023/03/27 05:46:18;;;;;;;7.93;2.27;;;;;;;4.58;74.09;98605.28;5074961;28;41565;-80
2023/03/27 05:48:52;;;;;;;7.83;2.27;;;;;;;4.66;73.44;98603.22;5090132;28;41894;-81
2023/03/27 05:51:22;;;;;;;5.67;2.40;;;;;;;4.64;72.93;98609.44;5075213;28;41649;-82
2023/03/27 05:53:51;;;;;;;5.63;1.93;;;;;;;4.64;72.58;98615.53;5092062;28;42378;-81
2023/03/27 05:56:21;;;;;;;6.70;2.53;;;;;;;4.72;71.98;98637.94;5059666;28;41430;-81
2023/03/27 05:58:54;;;;;;;4.70;2.00;;;;;;;4.77;71.65;98646.50;5090011;28;40282;-82
2023/03/27 06:01:24;;;;;;;7.00;2.00;;;;;;;4.75;71.25;98649.19;5075162;28;41997;-81
2023/03/27 06:03:54;;;;;;;5.30;1.53;;;;;;;4.77;70.61;98668.34;5089897;28;42651;-83
2023/03/27 06:06:29;;;;;;;5.37;1.63;;;;;;;4.82;70.07;98673.41;5089239;28;42246;-82
2023/03/27 06:08:59;;;;;;;6.00;1.50;;;;;;;4.59;70.32;98638.47;5075070;28;38978;-82
2023/03/27 06:11:29;;;;;;;4.23;1.67;;;;;;;4.58;70.40;98652.50;5074976;28;40753;-82
2023/03/27 06:13:58;;;;;;;4.27;1.43;;;;;;;4.68;70.42;98680.06;5059234;28;41823;-81
2023/03/27 06:16:36;;;;;;;4.80;1.93;;;;;;;4.69;69.89;98689.66;5052299;28;42883;-83
2023/03/27 06:19:26;;;;;;;4.03;1.40;;;;;;;4.70;69.81;98698.34;5081208;28;40640;-82
2023/03/27 06:21:55;;;;;;;8.13;1.60;;;;;;;4.88;69.11;98707.22;5073952;28;40551;-80
2023/03/27 06:24:24;;;;;;;3.73;1.30;;;;;;;4.77;68.78;98677.97;5084889;28;44382;-75
2023/03/27 06:26:52;;;;;;;5.70;1.50;;;;;;;5.19;68.53;98725.19;5086883;28;42334;-78
2023/03/27 06:29:21;;;;;;;3.77;1.50;;;;;;;5.35;67.59;98721.81;5072538;28;39984;-76
2023/03/27 06:31:51;;;;;;;3.13;1.27;;;;;;;5.46;66.92;98729.19;5072499;28;40900;-76
2023/03/27 06:34:29;;;;;;;3.83;1.20;;;;;;;5.48;65.66;98744.91;5073284;28;42017;-79
2023/03/27 06:37:04;;;;;;;6.00;1.33;;;;;;;5.44;65.92;98749.41;5073225;28;41327;-79
2023/03/27 06:39:38;;;;;;;4.40;1.30;;;;;;;5.32;65.12;98761.31;5123822;27;41067;-79
2023/03/27 06:42:06;;;;;;;8.47;1.60;;;;;;;5.20;65.70;98769.72;5073228;28;40735;-79
2023/03/27 06:44:46;;;;;;;4.53;1.53;;;;;;;5.14;65.67;98772.59;5057118;28;41615;-79
2023/03/27 06:47:37;;;;;;;6.40;1.23;;;;;;;5.09;65.22;98781.56;5083138;28;41165;-78
2023/03/27 06:50:25;;;;;;;9.53;1.47;;;;;;;5.12;65.43;98774.44;5128766;27;40901;-78
2023/03/27 06:52:58;;;;;;;7.93;1.33;;;;;;;5.26;65.29;98779.97;5090486;28;41956;-78
2023/03/27 06:55:39;;;;;;;5.20;1.57;;;;;;;5.46;64.88;98789.59;5077318;28;41396;-79
2023/03/27 06:58:08;;;;;;;8.60;1.50;;;;;;;5.51;63.51;98792.06;5073194;28;42442;-79
2023/03/27 07:00:38;;;;;;;3.63;1.33;;;;;;;5.70;62.39;98819.22;5056506;28;40077;-78
2023/03/27 07:03:26;;;;;;;5.03;1.53;;;;;;;5.98;62.64;98822.38;5087860;28;40850;-77
2023/03/27 07:05:54;;;;;;;5.07;1.40;;;;;;;5.96;61.69;98805.81;5093761;28;41715;-77
2023/03/27 07:08:24;;;;;;;1.73;0.90;;;;;;;6.24;60.72;98815.94;5076581;28;42455;-78
2023/03/27 07:10:54;;;;;;;2.30;1.20;;;;;;;7.32;60.75;98842.34;5081815;28;39011;-80
2023/03/27 07:13:22;;;;;;;4.47;1.00;;;;;;;9.12;53.73;98890.91;5078711;28;40583;-80
2023/03/27 07:15:50;;;;;;;6.47;1.30;;;;;;;10.93;51.47;98880.88;5078571;28;41936;-78
2023/03/27 07:18:21;;;;;;;2.50;1.03;;;;;;;12.79;45.75;98946.22;5100546;28;42454;-78
2023/03/27 07:20:51;;;;;;;3.63;1.30;;;;;;;14.13;44.09;98943.56;5088548;28;39442;-79
2023/03/27 07:23:24;;;;;;;5.00;1.27;;;;;;;15.26;41.80;98963.13;5086591;28;40884;-78
2023/03/27 07:25:57;;;;;;;3.93;1.00;;;;;;;16.24;39.31;98976.47;5113342;27;41975;-78
2023/03/27 07:28:43;;;;;;;5.87;1.43;;;;;;;17.05;37.69;98975.78;5074625;28;41107;-78
2023/03/27 07:31:15;;;;;;;1.67;0.97;;;;;;;17.63;35.90;98990.25;5110123;27;40863;-78
2023/03/27 07:33:43;;;;;;;3.57;1.40;;;;;;;17.61;34.16;99013.63;5110276;28;40498;-78
2023/03/27 07:36:13;;;;;;;5.57;1.23;;;;;;;17.23;35.28;98987.53;5092133;28;42804;-76
2023/03/27 07:39:08;;;;;;;3.77;1.60;;;;;;;17.16;36.31;98986.41;5089840;28;41060;-76
2023/03/27 07:41:36;;;;;;;6.20;1.83;;;;;;;17.23;34.71;98990.22;5092420;28;39946;-77
2023/03/27 07:44:26;;;;;;;4.50;1.30;;;;;;;17.82;33.63;99010.88;5092076;28;41748;-81
2023/03/27 07:47:02;;;;;;;4.53;1.40;;;;;;;18.71;31.87;99004.44;5109087;28;41736;-77
2023/03/27 07:49:30;;;;;;;3.70;1.23;;;;;;;19.75;31.51;99021.38;5127069;27;42247;-81
2023/03/27 07:51:59;;;;;;;3.17;1.30;;;;;;;21.20;29.09;99048.00;5072183;28;40031;-80
2023/03/27 07:54:30;;;;;;;4.20;1.63;;;;;;;21.86;27.74;99051.72;5054971;28;40518;-77
2023/03/27 07:56:58;;;;;;;3.33;1.40;;;;;;;22.32;27.60;99043.28;5079637;28;42657;-77
2023/03/27 07:59:32;;;;;;;4.07;1.20;;;;;;;23.61;26.07;99039.72;5092407;28;41686;-78
2023/03/27 08:02:10;;;;;;;2.67;1.00;;;;;;;24.48;24.36;99070.25;5074604;28;39168;-77
2023/03/27 08:04:39;;;;;;;2.17;1.20;;;;;;;24.76;23.49;99068.69;5092634;28;41524;-78
2023/03/27 08:07:10;;;;;;;3.73;1.47;;;;;;;24.36;24.62;99063.56;5109101;28;42746;-79
2023/03/27 08:09:41;;;;;;;3.17;1.53;;;;;;;23.67;24.56;99070.59;5108878;28;41589;-77
2023/03/27 08:12:09;;;;;;;3.87;1.67;;;;;;;23.27;24.27;99070.50;5074842;28;39858;-78
2023/03/27 08:14:44;;;;;;;3.17;1.30;;;;;;;22.03;25.29;99078.75;5075149;28;41030;-77
2023/03/27 08:17:26;;;;;;;3.73;1.23;;;;;;;20.21;27.47;99056.19;5075010;28;41952;-78
2023/03/27 08:19:55;;;;;;;3.63;1.43;;;;;;;19.77;28.30;99060.53;5070943;28;41472;-77
2023/03/27 08:22:24;;;;;;;4.23;1.33;;;;;;;20.55;27.90;99060.91;5084831;28;40584;-78
2023/03/27 08:25:12;;;;;;;3.70;1.00;;;;;;;20.10;28.34;99061.78;5092639;28;42733;-78
2023/03/27 08:27:41;;;;;;;2.97;1.30;;;;;;;19.99;28.39;99067.34;5091905;28;42098;-78
2023/03/27 08:30:10;;;;;;;3.50;1.27;;;;;;;19.13;28.39;99057.78;5108514;28;41433;-78
2023/03/27 08:32:41;;;;;;;2.77;1.10;;;;;;;18.87;29.27;99069.13;5071386;28;38955;-77
2023/03/27 08:35:11;;;;;;;3.50;1.27;;;;;;;18.77;27.89;99089.75;5071346;28;43358;-78
2023/03/27 08:37:40;;;;;;;2.93;1.13;;;;;;;18.38;29.43;99070.09;5069840;28;41846;-77
2023/03/27 08:40:32;;;;;;;2.67;1.30;;;;;;;19.69;29.09;99063.97;5091859;28;41361;-79
2023/03/27 08:43:25;;;;;;;3.63;1.90;;;;;;;21.16;26.41;99099.44;5093066;28;40237;-79
2023/03/27 08:45:56;;;;;;;4.20;1.30;;;;;;;21.97;25.24;99103.69;5074005;28;40987;-80
2023/03/27 08:48:32;;;;;;;3.57;1.53;;;;;;;23.04;24.47;99101.94;5074897;28;41681;-79
2023/03/27 08:51:05;;;;;;;1.63;0.97;;;;;;;24.31;23.25;99129.91;5087902;28;42007;-77
2023/03/27 08:53:40;;;;;;;4.10;1.43;;;;;;;26.11;21.46;99141.81;5074997;28;38996;-76
2023/03/27 08:56:14;;;;;;;5.43;1.43;;;;;;;27.37;19.73;99154.97;5074128;28;40840;-77
2023/03/27 08:58:43;;;;;;;3.42;1.50;;;;;;;28.65;20.25;99142.84;5074200;28;41953;-78
2023/03/27 09:01:39;;;;;;;2.63;1.30;;;;;;;27.34;20.36;99155.38;5071074;28;42565;-76
2023/03/27 09:04:22;;;;;;;3.47;1.10;;;;;;;28.71;19.93;99142.84;5085324;28;40051;-78
2023/03/27 09:07:00;;;;;;;1.83;1.20;;;;;;;28.95;18.68;99166.84;5062706;28;41606;-77
2023/03/27 09:09:39;;;;;;;4.77;1.63;;;;;;;28.38;19.23;99152.78;5074024;28;41763;-79
2023/03/27 09:12:25;;;;;;;4.00;1.30;;;;;;;29.09;18.49;99166.88;5087607;28;43047;-77
2023/03/27 09:14:57;;;;;;;3.45;1.10;;;;;;;30.20;17.23;99176.97;5125025;27;40781;-78
2023/03/27 09:17:31;;;;;;;2.40;1.05;;;;;;;31.11;17.14;99168.63;5087785;28;42484;-77
2023/03/27 09:20:16;;;;;;;3.90;1.40;;;;;;;31.23;16.97;99171.50;5090002;28;43446;-80
2023/03/27 09:22:51;;;;;;;2.22;0.98;;;;;;;31.13;16.33;99165.69;5070083;28;42242;-78
2023/03/27 09:25:58;;;;;;;3.63;1.37;;;;;;;30.70;17.03;99152.63;5072918;28;40210;-78
2023/03/27 09:28:49;;;;;;;2.83;1.00;;;;;;;29.84;17.43;99165.66;5091021;28;40543;-78
2023/03/27 09:31:26;;;;;;;1.73;0.90;;;;;;;28.10;17.90;99172.72;5086950;28;42874;-82
2023/03/27 09:33:55;;;;;;;5.47;1.70;;;;;;;26.65;18.48;99176.81;5074201;28;42893;-79
2023/03/27 09:36:24;;;;;;;3.23;1.10;;;;;;;24.55;20.58;99147.88;5119827;27;40867;-81
2023/03/27 09:39:03;;;;;;;3.97;1.17;;;;;;;22.97;22.30;99149.56;5053542;28;40553;-78
2023/03/27 09:41:37;;;;;;;5.03;1.27;;;;;;;21.39;23.05;99140.22;5076432;28;42808;-78
2023/03/27 09:44:12;;;;;;;3.67;0.80;;;;;;;21.00;24.29;99134.34;5073741;28;41340;-82
2023/03/27 09:46:48;;;;;;;3.80;1.23;;;;;;;22.57;23.39;99113.34;5121853;27;40385;-81
2023/03/27 09:49:18;;;;;;;3.40;1.03;;;;;;;22.77;23.05;99116.59;5074781;28;40991;-83
2023/03/27 09:51:52;;;;;;;3.20;1.30;;;;;;;23.53;23.03;99118.13;5059142;28;41935;-79
2023/03/27 09:54:52;;;;;;;3.70;1.07;;;;;;;23.51;22.01;99131.81;5071897;28;42214;-80
2023/03/27 09:57:21;;;;;;;2.40;1.23;;;;;;;23.55;23.11;99138.56;5093395;28;38954;-78
2023/03/27 10:00:00;;;;;;;3.13;0.97;;;;;;;23.38;23.06;99131.47;5071767;28;41845;-80
2023/03/27 10:02:30;;;;;;;4.70;1.10;;;;;;;22.42;23.24;99128.47;5095336;28;43841;-81
2023/03/27 10:05:01;;;;;;;1.57;0.90;;;;;;;21.05;24.63;99141.94;5053914;28;41015;-81
2023/03/27 10:07:34;;;;;;;5.23;1.23;;;;;;;19.22;26.35;99137.44;5082308;28;41561;-79
2023/03/27 10:10:21;;;;;;;2.77;1.10;;;;;;;17.76;29.36;99148.06;5091564;28;42783;-77
2023/03/27 10:13:15;;;;;;;2.70;1.00;;;;;;;16.13;33.16;99108.31;5090256;28;41802;-81
2023/03/27 10:15:49;;;;;;;3.67;1.30;;;;;;;15.12;35.55;99096.75;5074816;28;42321;-78
2023/03/27 10:18:30;;;;;;;3.00;1.10;;;;;;;15.03;36.68;99089.47;5110971;28;39063;-79
2023/03/27 10:21:16;;;;;;;4.97;1.50;;;;;;;18.63;33.07;99088.34;5076012;28;41900;-77
2023/03/27 10:23:48;;;;;;;2.77;1.30;;;;;;;22.40;27.87;99114.31;5076960;28;41738;-82
2023/03/27 10:26:27;;;;;;;3.23;1.50;;;;;;;25.02;26.40;99133.38;5090754;28;42855;-79
2023/03/27 10:29:00;;;;;;;4.90;1.63;;;;;;;27.03;23.98;99136.69;5076814;28;39781;-80
2023/03/27 10:31:49;;;;;;;3.83;1.17;;;;;;;28.19;21.41;99143.47;5091303;28;41762;-80
2023/03/27 10:34:36;;;;;;;4.43;1.83;;;;;;;27.42;21.20;99168.84;5092180;28;42592;-77
2023/03/27 10:37:28;;;;;;;2.73;1.03;;;;;;;26.84;21.41;99184.34;5093888;28;41437;-77
2023/03/27 10:40:27;;;;;;;2.93;1.20;;;;;;;25.60;21.38;99183.38;5080319;28;38845;-80
2023/03/27 10:43:03;;;;;;;3.60;1.57;;;;;;;27.65;20.73;99178.69;5076325;28;40827;-79
2023/03/27 10:45:41;;;;;;;3.30;1.67;;;;;;;30.26;20.13;99181.59;5076937;28;41786;-82
2023/03/27 10:48:22;;;;;;;2.38;1.27;;;;;;;32.32;17.52;99192.91;5094216;28;41916;-79
2023/03/27 10:50:56;;;;;;;3.40;1.38;;;;;;;33.67;17.16;99191.50;5094154;28;40001;-77
2023/03/27 10:53:52;;;;;;;3.05;1.45;;;;;;;34.88;16.87;99185.19;5094703;28;42484;-80
2023/03/27 10:56:29;;;;;;;4.03;1.30;;;;;;;33.50;15.87;99190.53;5072022;28;42359;-80
2023/03/27 10:59:01;;;;;;;5.97;1.50;;;;;;;30.69;17.53;99191.97;5056332;28;40893;-78
2023/03/27 11:01:37;;;;;;;2.73;1.30;;;;;;;28.72;18.70;99181.84;5062118;28;41247;-79
2023/03/27 11:04:15;;;;;;;3.50;1.23;;;;;;;30.09;17.83;99183.09;5110624;28;40935;-79
2023/03/27 11:06:57;;;;;;;1.70;1.00;;;;;;;31.71;18.21;99174.50;5124039;27;42931;-77
2023/03/27 11:09:31;;;;;;;2.72;0.93;;;;;;;31.88;16.76;99163.84;5091756;28;43051;-80
2023/03/27 11:12:12;;;;;;;1.58;1.00;;;;;;;32.26;16.22;99178.22;5072152;28;40574;-78
2023/03/27 11:14:57;;;;;;;3.80;1.20;;;;;;;29.61;16.34;99191.53;5056122;28;40804;-76
2023/03/27 11:17:31;;;;;;;3.07;1.10;;;;;;;27.00;18.39;99202.31;5082708;28;43078;-77
2023/03/27 11:20:35;;;;;;;2.33;0.80;;;;;;;24.21;20.43;99209.59;5083268;28;42486;-76
2023/03/27 11:23:19;;;;;;;1.27;0.73;;;;;;;21.83;23.43;99180.63;5092002;28;40148;-77
2023/03/27 11:26:11;;;;;;;4.03;0.77;;;;;;;20.20;25.92;99161.22;5091629;28;40463;-77
2023/03/27 11:28:45;;;;;;;1.43;0.60;;;;;;;20.75;26.32;99151.28;5090487;28;43294;-82
2023/03/27 11:31:19;;;;;;;1.13;0.80;;;;;;;21.51;25.78;99159.72;5090200;28;42597;-78
2023/03/27 11:33:54;;;;;;;2.93;0.60;;;;;;;23.61;25.20;99153.28;5091087;28;40853;-78
2023/03/27 11:36:36;;;;;;;1.90;0.60;;;;;;;25.95;23.98;99160.19;5089262;28;41439;-78
2023/03/27 11:39:36;;;;;;;1.10;1.00;;;;;;;27.56;22.22;99137.19;5091774;28;42010;-80
2023/03/27 11:42:13;;;;;;;2.57;1.00;;;;;;;27.49;21.63;99177.91;5089153;28;43270;-80
2023/03/27 11:44:41;;;;;;;2.53;0.90;;;;;;;27.29;21.58;99166.00;5077121;28;39266;-78
2023/03/27 11:47:44;;;;;;;2.17;0.93;;;;;;;26.94;20.89;99186.78;5093808;28;41664;-82
2023/03/27 11:50:23;;;;;;;3.07;1.10;;;;;;;26.72;20.57;99175.00;5051649;28;41143;-79
2023/03/27 11:53:09;;;;;;;3.90;1.10;;;;;;;28.36;19.39;99188.41;5087729;28;43175;-81
2023/03/27 11:56:10;;;;;;;3.50;1.20;;;;;;;29.94;18.29;99199.69;5092813;28;41872;-80
2023/03/27 11:58:55;;;;;;;2.40;1.00;;;;;;;28.86;18.70;99199.97;5075175;28;40971;-81
2023/03/27 12:01:27;;;;;;;3.60;1.00;;;;;;;26.23;21.15;99218.19;5059727;28;42113;-78
2023/03/27 12:04:30;;;;;;;3.37;1.00;;;;;;;23.37;25.75;99204.63;5073924;28;41254;-77
2023/03/27 12:07:35;;;;;;;1.73;0.83;;;;;;;20.56;28.91;99200.69;5075561;28;39165;-79
2023/03/27 12:10:18;;;;;;;1.40;1.20;;;;;;;18.49;32.20;99163.81;5077645;28;41867;-80
2023/03/27 12:13:40;;;;;;;2.40;1.60;;;;;;;17.02;34.93;99160.66;5103625;28;41413;-82
2023/03/27 12:16:24;;;;;;;1.00;1.00;;;;;;;17.82;35.51;99155.53;5074741;28;40816;-80
2023/03/27 12:19:12;;;;;;;1.83;1.00;;;;;;;20.25;33.04;99146.31;5074401;28;38744;-83
2023/03/27 12:21:52;;;;;;;1.50;0.70;;;;;;;22.95;30.36;99165.06;5091807;28;44454;-80
2023/03/27 12:24:32;;;;;;;1.37;1.00;;;;;;;25.00;26.74;99184.19;5091229;28;42846;-79
2023/03/27 12:27:46;;;;;;;2.50;0.93;;;;;;;25.80;25.83;99190.00;5042137;28;42563;-78